Time;durP1;ratioP1;P1;durP2;ratioP2;P2;SDS_P1;SDS_P2;PMS_P1;PMS_P2;Temp;Humidity;BMP_temperature;BMP_pressure;BME280_temperature;BME280_humidity;BME280_pressure;Samples;Min_cycle;Max_cycle;Signal;HPM_P1;HPM_P2
2023/06/30 00:01:24;;;;;;;;;5.75;4.75;;;;;-146.67;46.26;74671.59;5104047;27;61913;-81
2023/06/30 00:03:50;;;;;;;;;3.75;3.00;;;;;-146.67;45.68;74681.59;5103580;27;62001;-81
2023/06/30 00:06:15;;;;;;;;;5.00;2.25;;;;;-146.67;45.92;74683.59;5104046;27;62227;-80
2023/06/30 00:08:40;;;;;;;;;10.50;9.50;;;;;-146.67;45.92;74679.59;5103547;27;64598;-80
2023/06/30 00:11:06;;;;;;;;;2.50;2.50;;;;;-146.67;45.50;74683.59;5103725;27;61985;-81
2023/06/30 00:13:31;;;;;;;;;4.00;4.00;;;;;-146.67;45.74;74689.56;5105526;27;61933;-80
2023/06/30 00:15:56;;;;;;;;;8.00;6.25;;;;;-146.67;45.61;74685.59;5105646;27;61695;-80
2023/06/30 00:18:22;;;;;;;;;9.00;8.25;;;;;-146.67;45.56;74683.59;5103847;27;61941;-80
2023/06/30 00:20:47;;;;;;;;;7.00;7.00;;;;;-146.67;45.57;74683.59;5104064;27;61896;-80
2023/06/30 00:23:13;;;;;;;;;5.00;5.00;;;;;-146.67;45.34;74673.59;5088413;27;61863;-80
2023/06/30 00:25:39;;;;;;;;;6.50;4.00;;;;;-146.67;45.28;74667.63;5103741;27;61844;-80
2023/06/30 00:28:04;;;;;;;;;5.25;4.25;;;;;-146.67;45.10;74679.59;5103362;27;64836;-80
2023/06/30 00:30:29;;;;;;;;;4.00;4.00;;;;;-146.67;45.18;74681.59;5094081;27;62091;-80
2023/06/30 00:32:55;;;;;;;;;5.00;5.00;;;;;-146.67;45.17;74689.56;5099910;27;61927;-80
2023/06/30 00:35:20;;;;;;;;;4.25;3.00;;;;;-146.67;44.99;74699.56;5083272;27;62171;-80
2023/06/30 00:37:45;;;;;;;;;2.25;2.25;;;;;-146.67;45.32;74719.53;5103502;27;61827;-80
2023/06/30 00:40:13;;;;;;;;;2.00;2.00;;;;;-146.67;45.52;74723.50;5103414;27;62378;-80
2023/06/30 00:42:39;;;;;;;;;4.00;4.00;;;;;-146.67;45.18;74717.53;5103699;27;61893;-80
2023/06/30 00:45:05;;;;;;;;;5.50;4.00;;;;;-146.67;45.08;74701.56;5104991;27;61913;-80
2023/06/30 00:47:31;;;;;;;;;5.00;5.00;;;;;-146.67;44.79;74689.56;5101986;27;63512;-80
2023/06/30 00:49:56;;;;;;;;;6.50;5.25;;;;;-146.67;44.66;74709.53;5103486;27;61882;-80
2023/06/30 00:52:22;;;;;;;;;3.50;3.50;;;;;-146.67;44.86;74715.53;5098891;27;61920;-80
2023/06/30 00:54:47;;;;;;;;;3.75;3.75;;;;;-146.67;44.76;74713.53;5084254;27;62177;-80
2023/06/30 00:57:12;;;;;;;;;3.00;3.00;;;;;-146.67;44.45;74695.56;5094657;27;63461;-80
2023/06/30 00:59:38;;;;;;;;;4.00;4.00;;;;;-146.67;44.42;74701.56;5103154;27;61707;-80
2023/06/30 01:02:13;;;;;;;;;2.25;2.25;;;;;-146.67;44.24;74703.56;5102655;27;61781;-80
2023/06/30 01:04:54;;;;;;;;;4.50;4.50;;;;;-146.67;44.25;74709.53;5084233;27;62039;-80
2023/06/30 01:07:34;;;;;;;;;5.00;4.00;;;;;-146.67;44.31;74717.53;5098984;27;64325;-80
2023/06/30 01:10:12;;;;;;;;;6.50;5.00;;;;;-146.67;44.22;74713.53;5099563;27;61914;-80
2023/06/30 01:12:38;;;;;;;;;4.00;3.50;;;;;-146.67;44.33;74729.50;5099563;27;61804;-81
2023/06/30 01:15:06;;;;;;;;;4.00;3.00;;;;;-146.67;44.20;74717.53;5083550;27;61857;-81
2023/06/30 01:17:33;;;;;;;;;2.25;2.25;;;;;-146.67;43.96;74711.53;5082812;27;61873;-80
2023/06/30 01:20:00;;;;;;;;;3.25;3.00;;;;;-146.67;43.89;74709.53;5098490;27;61862;-81
2023/06/30 01:22:41;;;;;;;;;3.00;3.00;;;;;-146.67;43.92;74719.53;5104289;27;62133;-81
2023/06/30 01:25:11;;;;;;;;;6.25;4.00;;;;;-146.67;44.17;74709.53;5112438;27;61788;-80
2023/06/30 01:27:40;;;;;;;;;5.25;4.00;;;;;-146.67;44.32;74729.50;5082964;28;63171;-80
2023/06/30 01:30:06;;;;;;;;;5.25;4.00;;;;;-146.67;44.20;74741.50;5083371;28;62010;-80
2023/06/30 01:32:32;;;;;;;;;5.00;5.00;;;;;-146.67;44.21;74723.50;5087603;27;61962;-80
2023/06/30 01:34:58;;;;;;;;;6.00;6.00;;;;;-146.67;44.31;74717.53;5104102;27;61895;-80
2023/06/30 01:37:23;;;;;;;;;6.00;6.00;;;;;-146.67;44.08;74725.50;5102793;27;63194;-81
2023/06/30 01:39:49;;;;;;;;;7.50;7.50;;;;;-146.67;44.45;74741.50;5103746;27;61918;-81
2023/06/30 01:42:16;;;;;;;;;8.75;5.50;;;;;-146.67;44.49;74741.50;5102461;27;62074;-80
2023/06/30 01:44:43;;;;;;;;;6.25;6.25;;;;;-146.67;44.13;74735.50;5102279;27;61808;-80
2023/06/30 01:47:10;;;;;;;;;9.00;6.75;;;;;-146.67;44.48;74749.47;5101640;27;63741;-80
2023/06/30 01:49:35;;;;;;;;;9.00;7.50;;;;;-146.67;44.50;74727.50;5102159;27;61806;-80
2023/06/30 01:52:01;;;;;;;;;9.75;8.50;;;;;-146.67;44.38;74751.47;5102618;27;62009;-80
2023/06/30 01:54:27;;;;;;;;;10.50;10.50;;;;;-146.67;44.42;74765.44;5103667;27;61732;-80
2023/06/30 01:56:52;;;;;;;;;10.00;9.25;;;;;-146.67;44.37;74761.44;5107547;27;62030;-80
2023/06/30 01:59:18;;;;;;;;;11.25;9.50;;;;;-146.67;44.24;74747.47;5109008;27;61936;-85
2023/06/30 02:01:43;;;;;;;;;9.50;9.25;;;;;-146.67;44.24;74739.50;5110700;27;61879;-80
2023/06/30 02:04:09;;;;;;;;;12.25;10.75;;;;;-146.67;44.25;74749.47;5114271;27;62002;-80
2023/06/30 02:06:35;;;;;;;;;8.25;8.25;;;;;-146.67;44.22;74751.47;5112689;27;63868;-80
2023/06/30 02:09:00;;;;;;;;;9.75;8.00;;;;;-146.67;44.08;74745.47;5122740;27;61670;-80
2023/06/30 02:11:26;;;;;;;;;8.25;7.75;;;;;-146.67;44.18;74759.47;5119651;27;61747;-81
2023/06/30 02:13:51;;;;;;;;;6.25;6.25;;;;;-146.67;44.13;74763.44;5094878;27;61896;-80
2023/06/30 02:16:17;;;;;;;;;7.00;7.00;;;;;-146.67;44.14;74761.44;5082518;27;62357;-80
2023/06/30 02:18:43;;;;;;;;;9.25;9.00;;;;;-146.67;44.12;74755.47;5082493;27;61808;-80
2023/06/30 02:21:08;;;;;;;;;7.00;7.00;;;;;-146.67;44.23;74759.47;5082348;27;62013;-80
2023/06/30 02:23:34;;;;;;;;;11.00;7.50;;;;;-146.67;44.26;74763.44;5102115;27;61894;-80
2023/06/30 02:25:59;;;;;;;;;6.50;6.00;;;;;-146.67;44.15;74763.44;5102454;27;61972;-81
2023/06/30 02:28:24;;;;;;;;;8.25;6.75;;;;;-146.67;44.04;74779.41;5101678;27;61959;-80
2023/06/30 02:30:50;;;;;;;;;7.00;6.00;;;;;-146.67;43.95;74781.41;5101853;27;61859;-80
2023/06/30 02:33:16;;;;;;;;;6.00;5.25;;;;;-146.67;43.89;74779.41;5101657;27;62401;-80
2023/06/30 02:35:42;;;;;;;;;7.50;6.00;;;;;-146.67;44.16;74783.41;5101328;27;64947;-80
2023/06/30 02:38:07;;;;;;;;;7.25;6.25;;;;;-146.67;44.24;74783.41;5118983;27;62135;-80
2023/06/30 02:40:33;;;;;;;;;6.50;5.50;;;;;-146.67;44.34;74775.44;5103050;27;61794;-80
2023/06/30 02:42:59;;;;;;;;;7.50;7.50;;;;;-146.67;44.15;74775.44;5102762;27;61774;-80
2023/06/30 02:45:24;;;;;;;;;8.00;7.00;;;;;-146.67;44.35;74779.41;5101972;27;62048;-80
2023/06/30 02:47:50;;;;;;;;;4.75;4.50;;;;;-146.67;44.22;74791.41;5101162;27;61809;-80
2023/06/30 02:50:15;;;;;;;;;4.00;4.00;;;;;-146.67;44.47;74793.41;5102913;27;61837;-80
2023/06/30 02:52:41;;;;;;;;;7.00;4.00;;;;;-146.67;44.69;74803.38;5103026;27;62023;-80
2023/06/30 02:55:07;;;;;;;;;3.00;3.00;;;;;-146.67;44.54;74797.38;5117766;27;63697;-80
2023/06/30 02:57:32;;;;;;;;;3.25;2.00;;;;;-146.67;44.76;74819.34;5102565;27;61727;-81
2023/06/30 02:59:58;;;;;;;;;3.00;3.00;;;;;-146.67;44.56;74813.38;5102584;27;61981;-80
2023/06/30 03:02:23;;;;;;;;;3.50;2.50;;;;;-146.67;44.81;74815.38;5101744;27;61758;-80
2023/06/30 03:04:48;;;;;;;;;0.75;0.75;;;;;-146.67;44.68;74817.34;5092764;27;63513;-80
2023/06/30 03:07:16;;;;;;;;;3.75;3.75;;;;;-146.67;44.50;74813.38;5082145;27;62074;-80
2023/06/30 03:09:41;;;;;;;;;3.50;3.00;;;;;-146.67;44.44;74809.38;5081088;28;62019;-80
2023/06/30 03:12:07;;;;;;;;;4.00;3.00;;;;;-146.67;44.52;74817.34;5100458;27;61886;-80
2023/06/30 03:14:33;;;;;;;;;3.00;3.00;;;;;-146.67;44.59;74819.34;5102133;27;61764;-80
2023/06/30 03:16:58;;;;;;;;;4.50;3.00;;;;;-146.67;44.09;74809.38;5091730;27;61724;-80
2023/06/30 03:19:23;;;;;;;;;2.50;2.50;;;;;-146.67;44.45;74823.34;5082312;27;61871;-80
2023/06/30 03:21:49;;;;;;;;;5.00;5.00;;;;;-146.67;44.23;74817.34;5081170;28;61926;-80
2023/06/30 03:24:14;;;;;;;;;4.00;4.00;;;;;-146.67;44.08;74805.38;5096788;27;63441;-80
2023/06/30 03:26:39;;;;;;;;;5.25;4.25;;;;;-146.67;43.82;74803.38;5097480;27;61925;-80
2023/06/30 03:29:05;;;;;;;;;5.75;4.75;;;;;-146.67;43.92;74807.38;5082122;27;61777;-80
2023/06/30 03:31:30;;;;;;;;;6.50;4.50;;;;;-146.67;43.54;74775.44;5098150;27;61703;-80
2023/06/30 03:33:56;;;;;;;;;4.25;4.25;;;;;-146.67;43.35;74771.44;5094225;27;63152;-80
2023/06/30 03:36:21;;;;;;;;;4.75;4.00;;;;;-146.67;43.67;74795.41;5102323;27;61784;-80
2023/06/30 03:38:46;;;;;;;;;4.75;4.75;;;;;-146.67;43.67;74807.38;5102281;27;61691;-79
2023/06/30 03:41:12;;;;;;;;;5.00;5.00;;;;;-146.67;43.64;74813.38;5101607;27;62282;-79
2023/06/30 03:43:37;;;;;;;;;5.50;4.25;;;;;-146.67;43.77;74799.38;5101869;27;61854;-80
2023/06/30 03:46:02;;;;;;;;;6.25;6.25;;;;;-146.67;43.61;74817.34;5098387;27;61923;-80
2023/06/30 03:48:28;;;;;;;;;4.50;4.50;;;;;-146.67;43.47;74809.38;5090647;27;62630;-80
2023/06/30 03:50:53;;;;;;;;;5.75;5.75;;;;;-146.67;43.53;74823.34;5105485;27;61970;-80
2023/06/30 03:53:20;;;;;;;;;4.75;4.25;;;;;-146.67;43.75;74845.31;5086729;27;63473;-80
2023/06/30 03:55:45;;;;;;;;;4.25;4.25;;;;;-146.67;43.77;74839.31;5091255;27;62047;-80
2023/06/30 03:58:11;;;;;;;;;5.00;5.00;;;;;-146.67;43.60;74825.34;5095774;27;61944;-80
2023/06/30 04:00:36;;;;;;;;;6.50;6.00;;;;;-146.67;43.67;74827.34;5090951;27;61899;-80
2023/06/30 04:03:01;;;;;;;;;6.75;5.75;;;;;-146.67;43.81;74847.31;5098658;27;63532;-80
2023/06/30 04:05:27;;;;;;;;;5.25;5.25;;;;;-146.67;44.22;74867.28;5105505;27;61818;-80
2023/06/30 04:07:52;;;;;;;;;5.75;4.00;;;;;-146.67;44.03;74861.28;5105501;27;62237;-80
2023/06/30 04:10:18;;;;;;;;;5.50;5.50;;;;;-146.67;44.05;74867.28;5105077;27;61849;-80
2023/06/30 04:12:43;;;;;;;;;5.00;5.00;;;;;-146.67;44.14;74873.25;5105134;27;61989;-80
2023/06/30 04:15:10;;;;;;;;;6.75;4.00;;;;;-146.67;44.37;74879.25;5104100;27;61810;-80
2023/06/30 04:17:36;;;;;;;;;4.50;4.50;;;;;-146.67;44.41;74877.25;5097783;27;61735;-80
2023/06/30 04:20:09;;;;;;;;;8.50;7.50;;;;;-146.67;44.76;74891.22;5087787;27;61982;-80
2023/06/30 04:22:37;;;;;;;;;5.50;5.50;;;;;-146.67;45.17;74899.22;5089788;27;61982;-80
2023/06/30 04:25:04;;;;;;;;;9.25;8.00;;;;;-146.67;45.26;74901.22;5084621;27;61780;-80
2023/06/30 04:27:30;;;;;;;;;6.25;6.00;;;;;-146.67;45.27;74905.22;5105216;27;62086;-80
2023/06/30 04:29:55;;;;;;;;;9.25;8.00;;;;;-146.67;45.34;74911.19;5104232;27;62547;-80
2023/06/30 04:32:21;;;;;;;;;10.50;7.00;;;;;-146.67;45.48;74903.22;5092586;27;62286;-80
2023/06/30 04:34:46;;;;;;;;;5.75;5.25;;;;;-146.67;45.87;74907.22;5103104;27;61871;-80
2023/06/30 04:37:11;;;;;;;;;1.50;1.50;;;;;-146.67;46.21;74919.19;5117264;27;62495;-80
2023/06/30 04:39:37;;;;;;;;;8.50;6.50;;;;;-146.67;46.66;74925.19;5092461;27;62417;-80
2023/06/30 04:42:03;;;;;;;;;6.25;4.00;;;;;-146.67;46.14;74913.19;5113422;27;63483;-80
2023/06/30 04:44:29;;;;;;;;;4.75;4.75;;;;;-146.67;46.29;74903.22;5093490;27;61840;-79
2023/06/30 04:46:54;;;;;;;;;4.00;3.00;;;;;-146.67;46.08;74899.22;5084503;28;61742;-80
2023/06/30 04:49:20;;;;;;;;;5.25;4.00;;;;;-146.67;46.08;74901.22;5086183;27;61818;-82
2023/06/30 04:51:45;;;;;;;;;2.00;2.00;;;;;-146.67;46.34;74887.25;5104085;27;61849;-84
2023/06/30 04:54:11;;;;;;;;;4.25;3.75;;;;;-146.67;46.46;74907.22;5102915;27;61767;-83
2023/06/30 04:56:36;;;;;;;;;6.50;2.50;;;;;-146.67;46.68;74915.19;5093849;27;62069;-83
2023/06/30 04:59:01;;;;;;;;;3.00;3.00;;;;;-146.67;46.63;74923.19;5083195;27;62008;-83
2023/06/30 05:01:27;;;;;;;;;2.75;2.75;;;;;-146.67;46.18;74913.19;5101160;27;62067;-83
2023/06/30 05:03:52;;;;;;;;;3.00;3.00;;;;;-146.67;46.60;74921.19;5103121;27;61825;-83
2023/06/30 05:06:18;;;;;;;;;3.75;3.75;;;;;-146.67;46.75;74929.16;5103367;27;62059;-84
2023/06/30 05:08:43;;;;;;;;;4.00;2.00;;;;;-146.67;46.60;74939.16;5104054;27;61820;-83
2023/06/30 05:11:08;;;;;;;;;3.25;2.25;;;;;-146.67;47.01;74935.16;5103667;27;63409;-84
2023/06/30 05:13:34;;;;;;;;;4.00;4.00;;;;;-146.67;47.10;74959.13;5104008;27;61963;-85
2023/06/30 05:15:59;;;;;;;;;2.00;2.00;;;;;-146.67;46.82;74939.16;5104133;27;61759;-84
2023/06/30 05:18:24;;;;;;;;;3.25;3.00;;;;;-146.67;46.95;74929.16;5104098;27;61807;-85
2023/06/30 05:20:50;;;;;;;;;4.00;3.00;;;;;-146.67;46.70;74919.19;5103608;27;62988;-85
2023/06/30 05:23:15;;;;;;;;;4.00;4.00;;;;;-146.67;46.66;74931.16;5102790;27;62166;-84
2023/06/30 05:25:42;;;;;;;;;2.50;2.50;;;;;-146.67;46.45;74915.19;5102585;27;61833;-83
2023/06/30 05:28:11;;;;;;;;;4.50;4.50;;;;;-146.67;46.10;74889.22;5098090;27;61655;-83
2023/06/30 05:30:38;;;;;;;;;3.75;3.75;;;;;-146.67;45.71;74873.25;5098000;27;63332;-81
2023/06/30 05:33:03;;;;;;;;;4.00;4.00;;;;;-146.67;45.18;74839.31;5096626;27;62314;-85
2023/06/30 05:35:29;;;;;;;;;6.00;5.50;;;;;-146.67;44.53;74801.38;5104221;27;61860;-84
2023/06/30 05:37:55;;;;;;;;;4.50;3.75;;;;;-146.67;43.95;74761.44;5107389;27;62048;-85
2023/06/30 05:40:21;;;;;;;;;5.00;5.00;;;;;-146.67;43.27;74689.56;5102115;27;62902;-84
2023/06/30 05:42:46;;;;;;;;;5.75;5.00;;;;;-146.67;42.33;74617.69;5092548;27;62335;-84
2023/06/30 05:45:12;;;;;;;;;4.00;4.00;;;;;-146.67;41.44;74545.81;5097393;27;61949;-84
2023/06/30 05:47:37;;;;;;;;;4.75;2.00;;;;;-146.67;40.74;74511.88;5095654;27;62042;-85
2023/06/30 05:50:03;;;;;;;;;4.50;3.25;;;;;-146.67;40.14;74497.91;5092976;27;63385;-85
2023/06/30 05:52:28;;;;;;;;;3.00;3.00;;;;;-146.67;40.13;74463.97;5092788;27;61848;-85
2023/06/30 05:54:53;;;;;;;;;4.00;3.00;;;;;-146.67;39.97;74454.00;5088187;27;61949;-84
2023/06/30 05:57:19;;;;;;;;;4.75;3.00;;;;;-146.67;39.83;74450.00;5082283;27;62072;-83
2023/06/30 05:59:44;;;;;;;;;4.25;4.25;;;;;-146.67;40.23;74487.94;5096628;27;63448;-83
2023/06/30 06:02:10;;;;;;;;;4.75;3.75;;;;;-146.67;40.44;74493.91;5119319;27;61971;-82
2023/06/30 06:04:35;;;;;;;;;3.75;3.75;;;;;-146.67;40.70;74505.91;5102328;27;61784;-82
2023/06/30 06:07:03;;;;;;;;;3.25;3.25;;;;;-146.67;40.69;74529.84;5103279;27;62026;-83
2023/06/30 06:09:29;;;;;;;;;4.50;4.00;;;;;-146.67;40.28;74531.84;5118314;27;64503;-82
2023/06/30 06:11:54;;;;;;;;;2.00;2.00;;;;;-146.67;40.76;74567.78;5101764;27;62034;-82
2023/06/30 06:14:20;;;;;;;;;0.00;0.00;;;;;-146.67;41.15;74591.75;5102302;27;62284;-83
2023/06/30 06:16:46;;;;;;;;;4.00;2.75;;;;;-146.67;41.04;74573.78;5101132;27;62062;-82
2023/06/30 06:19:20;;;;;;;;;3.00;3.00;;;;;-146.67;40.69;74581.75;5084867;27;62244;-83
2023/06/30 06:21:46;;;;;;;;;6.25;3.00;;;;;-146.67;40.73;74595.75;5101296;27;61923;-83
2023/06/30 06:24:12;;;;;;;;;2.75;1.25;;;;;-146.67;40.36;74589.75;5086344;27;61872;-82
2023/06/30 06:26:38;;;;;;;;;6.00;5.00;;;;;-146.67;40.74;74563.78;5103017;27;61771;-81
2023/06/30 06:29:03;;;;;;;;;4.75;3.75;;;;;-146.67;39.46;74452.00;5084779;27;61951;-79
2023/06/30 06:31:29;;;;;;;;;4.75;3.50;;;;;-146.67;38.50;74384.13;5103184;27;62174;-82
2023/06/30 06:33:55;;;;;;;;;8.00;6.25;;;;;-146.67;38.00;74416.06;5097208;27;61848;-83
2023/06/30 06:36:21;;;;;;;;;5.00;5.00;;;;;-146.67;38.74;74461.97;5090941;27;61933;-81
2023/06/30 06:38:47;;;;;;;;;8.00;5.75;;;;;-146.67;39.62;74507.91;5080013;27;64595;-82
2023/06/30 06:41:12;;;;;;;;;8.50;8.50;;;;;-146.67;39.73;74535.84;5079909;28;62096;-82
2023/06/30 06:43:38;;;;;;;;;8.25;7.00;;;;;-146.67;39.58;74543.84;5081675;27;61838;-85
2023/06/30 06:46:03;;;;;;;;;7.00;6.25;;;;;-146.67;39.59;74555.81;5081405;27;61950;-84
2023/06/30 06:48:29;;;;;;;;;8.75;8.75;;;;;-146.67;39.87;74577.78;5079420;28;64748;-85
2023/06/30 06:50:55;;;;;;;;;9.00;7.75;;;;;-146.67;40.12;74567.78;5098522;27;61872;-84
2023/06/30 06:53:24;;;;;;;;;9.00;6.00;;;;;-146.67;40.11;74553.81;5102528;27;61940;-83
2023/06/30 06:55:51;;;;;;;;;10.00;9.00;;;;;-146.67;39.62;74553.81;5101183;27;62132;-83
2023/06/30 06:58:17;;;;;;;;;10.75;6.00;;;;;-146.67;39.36;74559.81;5101725;27;63020;-83
2023/06/30 07:00:45;;;;;;;;;6.25;6.25;;;;;-146.67;39.75;74541.84;5102419;27;61876;-83
2023/06/30 07:03:10;;;;;;;;;10.00;8.50;;;;;-146.67;39.59;74523.88;5112488;27;61990;-85
2023/06/30 07:05:35;;;;;;;;;13.25;6.75;;;;;-146.67;39.01;74553.81;5102483;27;61960;-81
2023/06/30 07:08:01;;;;;;;;;6.50;6.25;;;;;-146.67;37.79;74557.81;5109274;27;62884;-82
2023/06/30 07:10:29;;;;;;;;;9.50;8.50;;;;;-146.67;38.64;74571.78;5122518;27;61795;-82
2023/06/30 07:12:55;;;;;;;;;7.00;6.50;;;;;-146.67;38.43;74573.78;5118587;27;62139;-82
2023/06/30 07:15:20;;;;;;;;;10.25;8.25;;;;;-146.67;38.18;74579.78;5101051;27;61847;-81
2023/06/30 07:17:46;;;;;;;;;7.50;4.50;;;;;-146.67;38.18;74581.75;5100765;27;62327;-82
2023/06/30 07:20:11;;;;;;;;;8.75;7.25;;;;;-146.67;38.19;74583.75;5102232;27;61768;-86
2023/06/30 07:22:37;;;;;;;;;8.75;6.00;;;;;-146.67;38.23;74589.75;5118540;27;61819;-82
2023/06/30 07:25:03;;;;;;;;;6.25;6.25;;;;;-146.67;38.10;74571.78;5096632;27;61936;-82
2023/06/30 07:27:30;;;;;;;;;9.00;5.25;;;;;-146.67;38.24;74569.78;5089438;27;64923;-82
2023/06/30 07:29:55;;;;;;;;;9.25;9.25;;;;;-146.67;38.52;74587.75;5102211;27;62016;-82
2023/06/30 07:32:20;;;;;;;;;7.75;7.75;;;;;-146.67;38.22;74559.81;5100595;27;61747;-82
2023/06/30 07:34:46;;;;;;;;;7.50;7.50;;;;;-146.67;37.91;74543.84;5114307;27;61804;-82
2023/06/30 07:37:11;;;;;;;;;8.00;7.00;;;;;-146.67;37.79;74531.84;5083751;28;62743;-83
2023/06/30 07:39:37;;;;;;;;;7.25;6.00;;;;;-146.67;37.47;74533.84;5104084;27;62125;-82
2023/06/30 07:42:02;;;;;;;;;6.25;5.50;;;;;-146.67;37.84;74519.88;5126335;27;61739;-83
2023/06/30 07:44:29;;;;;;;;;9.00;6.75;;;;;-146.67;37.81;74509.88;5116154;27;61777;-82
2023/06/30 07:46:55;;;;;;;;;12.25;10.50;;;;;-146.67;37.86;74511.88;5083906;27;63185;-82
2023/06/30 07:49:21;;;;;;;;;10.00;7.00;;;;;-146.67;37.96;74491.94;5084618;27;62168;-83
2023/06/30 07:51:47;;;;;;;;;10.25;10.25;;;;;-146.67;37.64;74475.94;5083405;27;61936;-83
2023/06/30 07:54:12;;;;;;;;;14.75;9.75;;;;;-146.67;37.26;74513.88;5096501;27;61932;-82
2023/06/30 07:56:38;;;;;;;;;8.75;8.00;;;;;-146.67;37.58;74507.91;5103464;27;63386;-81
2023/06/30 07:59:03;;;;;;;;;11.00;7.75;;;;;-146.67;37.21;74509.88;5103972;27;61909;-82
2023/06/30 08:01:29;;;;;;;;;4.00;4.00;;;;;-146.67;36.52;74525.88;5103667;27;61952;-82
2023/06/30 08:03:54;;;;;;;;;6.75;6.50;;;;;-146.67;36.84;74539.84;5104076;27;62241;-83
2023/06/30 08:06:20;;;;;;;;;9.25;6.00;;;;;-146.67;37.02;74507.91;5084647;27;63739;-83
2023/06/30 08:08:45;;;;;;;;;9.50;7.75;;;;;-146.67;36.84;74505.91;5100317;27;62016;-82
2023/06/30 08:11:10;;;;;;;;;5.00;4.50;;;;;-146.67;36.62;74475.94;5100324;27;61786;-82
2023/06/30 08:13:36;;;;;;;;;6.00;6.00;;;;;-146.67;36.12;74454.00;5104051;27;61902;-82
2023/06/30 08:16:01;;;;;;;;;7.75;7.50;;;;;-146.67;36.92;74495.91;5102771;27;64880;-82
2023/06/30 08:18:30;;;;;;;;;7.50;5.00;;;;;-146.67;36.57;74507.91;5104298;27;62247;-84
2023/06/30 08:20:58;;;;;;;;;2.50;2.50;;;;;-146.67;35.78;74517.88;5103713;27;61881;-85
2023/06/30 08:23:25;;;;;;;;;4.50;4.50;;;;;-146.67;36.28;74501.91;5117412;27;62221;-85
2023/06/30 08:25:53;;;;;;;;;4.25;4.25;;;;;-146.67;36.33;74491.94;5083937;27;63155;-85
2023/06/30 08:28:19;;;;;;;;;6.25;4.25;;;;;-146.67;36.23;74471.97;5084128;27;62072;-85
2023/06/30 08:30:44;;;;;;;;;2.75;2.75;;;;;-146.67;36.67;74432.03;5082756;27;61806;-85
2023/06/30 08:33:10;;;;;;;;;7.75;4.50;;;;;-146.67;36.77;74406.06;5093572;27;62164;-85
2023/06/30 08:35:35;;;;;;;;;4.25;3.00;;;;;-146.67;36.79;74388.09;5102932;27;63509;-84
2023/06/30 08:38:00;;;;;;;;;5.00;3.75;;;;;-146.67;35.82;74358.16;5104975;27;61725;-84
2023/06/30 08:40:29;;;;;;;;;4.00;4.00;;;;;-146.67;34.45;74334.22;5104342;27;61781;-84
2023/06/30 08:42:58;;;;;;;;;2.75;2.75;;;;;-146.67;34.61;74330.22;5103634;27;62082;-85
2023/06/30 08:45:27;;;;;;;;;5.25;5.25;;;;;-146.67;35.61;74306.25;5103396;27;62990;-84
2023/06/30 08:47:57;;;;;;;;;4.50;3.75;;;;;-146.67;35.73;74316.25;5102393;27;61879;-85
2023/06/30 08:50:23;;;;;;;;;7.75;4.75;;;;;-146.67;35.58;74296.28;5103009;27;62099;-84
2023/06/30 08:52:49;;;;;;;;;6.50;6.00;;;;;-146.67;35.54;74278.31;5094334;27;61995;-84
2023/06/30 08:55:15;;;;;;;;;9.75;5.50;;;;;-146.67;35.39;74268.31;5081920;27;64878;-83
2023/06/30 08:57:41;;;;;;;;;4.50;3.25;;;;;-146.67;34.66;74260.34;5090278;27;61781;-82
2023/06/30 09:00:08;;;;;;;;;4.25;4.25;;;;;-146.67;34.05;74266.34;5105185;27;62057;-83
2023/06/30 09:02:36;;;;;;;;;3.50;3.00;;;;;-146.67;33.60;74262.34;5113310;27;61943;-82
2023/06/30 09:05:03;;;;;;;;;3.00;3.00;;;;;-146.67;34.14;74274.31;5111869;27;62938;-83
2023/06/30 09:07:33;;;;;;;;;4.00;4.00;;;;;-146.67;33.93;74276.31;5114435;27;61758;-82
2023/06/30 09:10:03;;;;;;;;;3.25;3.25;;;;;-146.67;33.18;74262.34;5125437;27;61927;-83
2023/06/30 09:12:29;;;;;;;;;1.50;1.50;;;;;-146.67;33.97;74276.31;5112370;27;61734;-82
2023/06/30 09:14:58;;;;;;;;;6.67;3.00;;;;;-146.67;33.94;74270.31;5110640;27;62270;-83
2023/06/30 09:17:25;;;;;;;;;4.00;4.00;;;;;-146.67;33.65;74218.41;5112779;27;63097;-82
2023/06/30 09:19:51;;;;;;;;;4.00;3.75;;;;;-146.67;33.25;74198.47;5113602;27;62176;-83
2023/06/30 09:22:20;;;;;;;;;6.75;5.00;;;;;-146.67;33.41;74208.44;5114659;27;61946;-80
2023/06/30 09:24:46;;;;;;;;;5.50;3.75;;;;;-146.67;33.80;74234.38;5118834;27;61900;-80
2023/06/30 09:27:12;;;;;;;;;4.00;4.00;;;;;-146.67;33.26;74232.41;5119237;27;61851;-81
2023/06/30 09:29:38;;;;;;;;;4.75;4.75;;;;;-146.67;33.35;74220.41;5114779;27;61858;-81
2023/06/30 09:32:05;;;;;;;;;5.00;4.00;;;;;-146.67;33.39;74226.41;5117140;27;61805;-81
2023/06/30 09:34:30;;;;;;;;;4.25;4.00;;;;;-146.67;32.90;74218.41;5099637;27;61889;-81
2023/06/30 09:36:56;;;;;;;;;6.00;6.00;;;;;-146.67;33.17;74198.47;5103353;27;61713;-81
2023/06/30 09:39:22;;;;;;;;;5.50;4.00;;;;;-146.67;32.75;74168.50;5102289;27;62097;-82
2023/06/30 09:41:49;;;;;;;;;5.00;4.00;;;;;-146.67;32.29;74146.56;5102012;27;62000;-82
2023/06/30 09:44:20;;;;;;;;;3.50;2.00;;;;;-146.67;31.93;74150.53;5102599;27;61768;-82
2023/06/30 09:46:46;;;;;;;;;3.00;3.00;;;;;-146.67;31.62;74188.47;5101292;27;62025;-80
2023/06/30 09:49:32;;;;;;;;;4.00;4.00;;;;;-146.67;31.68;74184.47;5106402;27;62472;-82
2023/06/30 09:52:00;;;;;;;;;2.25;2.00;;;;;-146.67;31.88;74152.53;5110900;27;62188;-82
2023/06/30 09:54:26;;;;;;;;;2.50;1.75;;;;;-146.67;31.75;74114.63;5104916;27;64636;-82
2023/06/30 09:57:04;;;;;;;;;3.00;3.00;;;;;-146.67;30.79;74102.63;5101639;27;61908;-82
2023/06/30 09:59:30;;;;;;;;;3.33;2.33;;;;;-146.67;31.68;74064.72;5102451;27;62379;-82
2023/06/30 10:01:56;;;;;;;;;2.50;2.50;;;;;-146.67;31.62;74026.78;5123609;27;61997;-82
2023/06/30 10:04:23;;;;;;;;;3.75;2.75;;;;;-146.67;31.30;73982.88;5123129;27;62672;-82
2023/06/30 10:06:50;;;;;;;;;4.50;3.25;;;;;-146.67;30.14;73954.91;5123833;27;61794;-82
2023/06/30 10:09:19;;;;;;;;;1.00;1.00;;;;;-146.67;29.44;73950.94;5102107;27;61862;-82
2023/06/30 10:11:52;;;;;;;;;3.33;3.00;;;;;-146.67;29.48;73952.91;5118903;27;62047;-82
2023/06/30 10:14:20;;;;;;;;;1.67;1.67;;;;;-146.67;29.26;73996.84;5080195;27;64670;-83
2023/06/30 10:16:48;;;;;;;;;2.00;2.00;;;;;-146.67;30.05;73990.84;5101203;27;61765;-87
2023/06/30 10:19:14;;;;;;;;;3.67;2.00;;;;;-146.67;30.09;73998.84;5099611;27;61792;-83
2023/06/30 10:21:41;;;;;;;;;1.33;0.67;;;;;-146.67;30.86;73996.84;5100465;27;62256;-83
2023/06/30 10:24:08;;;;;;;;;2.67;2.67;;;;;-146.67;30.66;74012.81;5117509;27;65020;-83
2023/06/30 10:26:36;;;;;;;;;3.67;3.00;;;;;-146.67;30.68;74026.78;5100854;27;61813;-82
2023/06/30 10:29:02;;;;;;;;;3.00;3.00;;;;;-146.67;31.03;74022.78;5100493;27;61859;-82
2023/06/30 10:31:27;;;;;;;;;4.33;3.33;;;;;-146.67;30.68;74024.78;5099983;27;62150;-81
2023/06/30 10:33:53;;;;;;;;;4.67;3.00;;;;;-146.67;30.45;74014.81;5098439;27;62821;-83
2023/06/30 10:36:19;;;;;;;;;3.00;3.00;;;;;-146.67;29.95;73998.84;5099205;27;61793;-82
2023/06/30 10:38:46;;;;;;;;;3.67;2.67;;;;;-146.67;30.34;74006.81;5099486;27;61903;-82
2023/06/30 10:41:13;;;;;;;;;2.67;2.67;;;;;-146.67;29.89;73998.84;5099130;27;62238;-82
2023/06/30 10:44:07;;;;;;;;;2.33;1.67;;;;;-146.67;30.63;73994.84;5100064;27;61975;-77
2023/06/30 10:46:48;;;;;;;;;2.00;2.00;;;;;-146.67;31.17;73964.91;5120853;27;62050;-81
2023/06/30 10:49:53;;;;;;;;;3.00;3.00;;;;;-146.67;30.63;73990.84;5103056;27;61907;-82
2023/06/30 10:52:29;;;;;;;;;1.00;1.00;;;;;-146.67;30.23;73982.88;4992822;28;61952;-82
2023/06/30 10:54:55;;;;;;;;;3.33;3.33;;;;;-146.67;30.36;73956.91;4987919;28;63800;-86
2023/06/30 10:57:24;;;;;;;;;2.67;1.67;;;;;-146.67;30.21;73915.00;5019132;28;61888;-87
2023/06/30 11:00:06;;;;;;;;;3.00;3.00;;;;;-146.67;29.87;73815.19;5019716;28;61797;-88
2023/06/30 11:02:33;;;;;;;;;3.00;2.00;;;;;-146.67;28.26;73801.22;5003051;28;61999;-88
2023/06/30 11:05:20;;;;;;;;;4.33;2.33;;;;;-146.67;28.72;73787.25;5002158;28;62581;-87
2023/06/30 11:07:48;;;;;;;;;2.33;2.33;;;;;-146.67;28.91;73779.25;5002087;28;61974;-81
2023/06/30 11:10:25;;;;;;;;;5.00;1.33;;;;;-146.67;29.49;73839.13;5019942;28;61933;-81
2023/06/30 11:12:55;;;;;;;;;2.33;2.33;;;;;-146.67;29.23;73857.09;5018816;28;62341;-79
2023/06/30 11:15:26;;;;;;;;;2.00;2.00;;;;;-146.67;29.66;73857.09;5013369;28;62020;-80